Atlanta, Georgia
Current Conditions -  °F | °C
As of 4:52 AM on Saturday 25 Oct 2014 (Local Time) from KATL Reporting Station
Clear Clear  
Wind Chill: 51°   Ceiling: Unl
Heat Index: 51°   Visibility: 10mi
Dew Point: 43°   Wind: 12mph
Humidity: 74%   Direction: 320°NW
Pressure: 30.02"   Gusts: NA
Location:  33.75°N, 84.39°W
Report Text: KATL 250852Z 32010KT 10SM CLR 11/06 A3002 RMK AO2 SLP161 T01060061 55003
Loading
Personal Weather Stations






























Interactive Weather Map New forecast layout! Learn more

10-Day Weather Forecast

Advertisements
Track Severe Weather on mobile